Time;durP1;ratioP1;P1;durP2;ratioP2;P2;SDS_P1;SDS_P2;PMS_P1;PMS_P2;Temp;Humidity;BMP_temperature;BMP_pressure;BME280_temperature;BME280_humidity;BME280_pressure;Samples;Min_cycle;Max_cycle;Signal;HPM_P1;HPM_P2
2022/12/17 13:08:09;;;;;;;101.00;63.30;;;;;;;-1.16;93.23;102504.31;5051938;28;20029;-67
2022/12/17 13:10:36;;;;;;;99.57;66.50;;;;;;;-1.25;92.54;102510.28;5053871;28;20373;-67
2022/12/17 13:13:10;;;;;;;100.77;66.10;;;;;;;-1.42;92.74;102503.97;5049538;28;20484;-67
2022/12/17 13:15:42;;;;;;;93.80;58.10;;;;;;;-1.40;92.77;102499.66;5050903;28;20057;-67
2022/12/17 13:18:26;;;;;;;103.03;61.20;;;;;;;-1.36;92.71;102501.44;5045778;28;20031;-67
2022/12/17 13:21:23;;;;;;;101.00;64.00;;;;;;;-1.35;92.70;102505.84;5063561;28;20074;-67
2022/12/17 13:23:48;;;;;;;96.17;58.43;;;;;;;-1.30;92.63;102500.66;5043427;28;20037;-66
2022/12/17 13:26:40;;;;;;;96.50;59.43;;;;;;;-1.23;92.80;102499.88;5052581;28;20036;-67
2022/12/17 13:29:28;;;;;;;100.13;61.73;;;;;;;-1.27;92.68;102496.34;5053091;28;20472;-67
2022/12/17 13:31:59;;;;;;;103.53;66.07;;;;;;;-1.38;92.63;102492.75;5053658;28;20036;-67
2022/12/17 13:34:42;;;;;;;96.13;59.70;;;;;;;-1.40;92.73;102490.09;5052248;28;20483;-67
2022/12/17 13:37:26;;;;;;;97.07;61.50;;;;;;;-1.38;92.37;102492.75;5051838;28;20384;-67
2022/12/17 13:40:11;;;;;;;107.73;66.93;;;;;;;-1.54;92.74;102476.00;5063502;28;20125;-67
2022/12/17 13:42:37;;;;;;;102.80;58.80;;;;;;;-1.43;93.31;102489.19;5065504;28;20398;-67
2022/12/17 13:45:05;;;;;;;100.27;60.90;;;;;;;-1.47;93.02;102488.28;5049332;28;20025;-67
2022/12/17 13:47:36;;;;;;;101.03;63.80;;;;;;;-1.30;93.23;102493.69;5058837;28;20077;-67
2022/12/17 13:50:18;;;;;;;100.00;63.33;;;;;;;-1.32;93.50;102498.03;5070584;28;20039;-67
2022/12/17 13:52:47;;;;;;;96.03;57.77;;;;;;;-1.34;92.27;102506.69;5053165;28;20060;-67
2022/12/17 13:55:32;;;;;;;98.93;62.13;;;;;;;-1.48;92.90;102493.47;5070293;28;20029;-67
2022/12/17 13:57:58;;;;;;;104.77;64.67;;;;;;;-1.63;92.58;102496.75;5041633;28;20102;-67
2022/12/17 14:00:26;;;;;;;99.37;62.43;;;;;;;-1.72;92.94;102488.78;5054796;28;20024;-67
2022/12/17 14:02:52;;;;;;;105.80;65.90;;;;;;;-1.67;93.49;102501.06;5052904;28;20086;-67
2022/12/17 14:05:23;;;;;;;108.80;65.53;;;;;;;-1.67;93.79;102501.06;5051563;28;20075;-67
2022/12/17 14:07:49;;;;;;;102.90;59.37;;;;;;;-1.58;93.18;102499.44;5051001;28;20051;-66
2022/12/17 14:10:16;;;;;;;106.30;60.60;;;;;;;-1.60;93.78;102497.66;5052663;28;20029;-66
2022/12/17 14:12:42;;;;;;;108.87;67.60;;;;;;;-1.61;93.57;102497.66;5050390;28;20112;-66
2022/12/17 14:15:28;;;;;;;106.40;59.93;;;;;;;-1.64;93.51;102503.69;5051793;28;20132;-66
2022/12/17 14:17:55;;;;;;;107.57;60.47;;;;;;;-1.68;93.64;102501.00;5055154;28;20060;-67
2022/12/17 14:20:28;;;;;;;107.40;65.90;;;;;;;-1.79;93.45;102492.16;5061503;28;20074;-67
2022/12/17 14:22:58;;;;;;;104.93;62.90;;;;;;;-1.78;93.52;102510.44;5070831;28;20012;-67
2022/12/17 14:25:29;;;;;;;106.47;64.03;;;;;;;-1.78;93.62;102509.56;5072568;28;20028;-67
2022/12/17 14:27:59;;;;;;;108.80;60.83;;;;;;;-1.76;93.89;102506.13;5051153;28;20071;-66
2022/12/17 14:30:37;;;;;;;109.32;58.63;;;;;;;-1.88;93.56;102503.34;5050834;28;20468;-66
2022/12/17 14:33:06;;;;;;;104.80;58.93;;;;;;;-1.91;93.58;102518.91;5050159;28;20074;-67
2022/12/17 14:35:38;;;;;;;101.67;57.27;;;;;;;-1.86;93.62;102506.84;5052129;28;20029;-67
2022/12/17 14:38:04;;;;;;;97.43;56.37;;;;;;;-2.06;94.02;102489.19;5051826;28;20063;-66
2022/12/17 14:40:30;;;;;;;104.50;61.97;;;;;;;-1.97;93.87;102514.53;5050716;28;20037;-67
2022/12/17 14:43:00;;;;;;;103.67;57.83;;;;;;;-2.01;94.09;102517.91;5050531;28;20487;-67
2022/12/17 14:45:27;;;;;;;97.65;56.60;;;;;;;-1.97;94.10;102521.44;5058499;28;20081;-67
2022/12/17 14:47:54;;;;;;;99.80;56.77;;;;;;;-1.89;93.54;102527.66;5070353;28;20023;-67
2022/12/17 14:50:34;;;;;;;101.57;55.57;;;;;;;-1.91;94.04;102531.94;5057593;28;20025;-67
2022/12/17 14:53:22;;;;;;;98.00;55.57;;;;;;;-1.99;94.08;102533.59;5050883;28;20028;-66
2022/12/17 14:55:56;;;;;;;98.70;54.77;;;;;;;-2.12;94.31;102527.28;5050878;28;20092;-66
2022/12/17 14:58:25;;;;;;;105.77;56.33;;;;;;;-2.09;93.94;102530.84;5050886;28;20112;-67
2022/12/17 15:01:15;;;;;;;98.20;53.83;;;;;;;-2.09;94.48;102536.06;5067462;28;20021;-67
2022/12/17 15:03:44;;;;;;;104.63;57.97;;;;;;;-2.20;94.23;102542.81;5053463;28;20032;-67
2022/12/17 15:06:15;;;;;;;106.78;54.35;;;;;;;-2.28;94.19;102550.47;5063326;28;20425;-67
2022/12/17 15:08:49;;;;;;;104.40;54.83;;;;;;;-2.29;94.97;102537.44;5070908;28;20039;-67
2022/12/17 15:11:19;;;;;;;99.60;54.33;;;;;;;-2.28;95.61;102547.88;5071878;28;20064;-67
2022/12/17 15:13:45;;;;;;;101.20;54.40;;;;;;;-2.32;95.30;102542.59;5058184;28;20530;-67
2022/12/17 15:16:11;;;;;;;111.93;55.83;;;;;;;-2.40;94.83;102532.03;5051146;28;20140;-67
2022/12/17 15:18:36;;;;;;;106.33;57.33;;;;;;;-2.35;95.08;102553.84;5061454;28;20043;-67
2022/12/17 15:21:03;;;;;;;111.10;57.93;;;;;;;-2.38;95.52;102556.41;5066555;28;20112;-67
2022/12/17 15:23:32;;;;;;;110.00;58.47;;;;;;;-2.41;95.86;102565.84;5065000;28;20029;-67
2022/12/17 15:25:58;;;;;;;112.45;57.83;;;;;;;-2.39;95.60;102570.25;5052169;28;20035;-67
2022/12/17 15:28:25;;;;;;;104.63;55.73;;;;;;;-2.36;95.63;102564.22;5051377;28;20021;-67
2022/12/17 15:30:50;;;;;;;110.73;59.67;;;;;;;-2.41;95.71;102548.53;5049033;28;20108;-67
2022/12/17 15:33:16;;;;;;;108.37;57.07;;;;;;;-2.29;95.73;102572.19;5051220;28;20502;-67
2022/12/17 15:35:44;;;;;;;106.60;58.27;;;;;;;-2.33;95.47;102572.97;5050602;28;20021;-67
2022/12/17 15:38:11;;;;;;;117.03;59.03;;;;;;;-2.34;95.85;102571.22;5058712;28;20032;-67
2022/12/17 15:40:37;;;;;;;111.40;57.93;;;;;;;-2.27;96.18;102572.19;5071247;28;20059;-67
2022/12/17 15:43:12;;;;;;;116.73;60.00;;;;;;;-2.37;95.80;102578.09;5064931;28;20053;-67
2022/12/17 15:45:49;;;;;;;113.20;58.43;;;;;;;-2.45;96.03;102571.88;5049826;28;20078;-67
2022/12/17 15:48:17;;;;;;;115.97;60.87;;;;;;;-2.42;96.30;102578.00;5050091;28;20025;-67
2022/12/17 15:50:43;;;;;;;118.13;61.80;;;;;;;-2.41;96.09;102586.69;5063735;28;20029;-66
2022/12/17 15:53:08;;;;;;;111.90;58.70;;;;;;;-2.37;95.70;102581.59;5051298;28;20211;-66
2022/12/17 15:55:37;;;;;;;112.73;59.27;;;;;;;-2.38;95.22;102589.34;5046592;28;20094;-67
2022/12/17 15:58:03;;;;;;;111.10;58.77;;;;;;;-2.35;95.59;102581.63;5051068;28;20058;-67
2022/12/17 16:00:28;;;;;;;113.27;60.83;;;;;;;-2.28;95.37;102589.56;5049846;28;20079;-67
2022/12/17 16:02:56;;;;;;;109.50;59.03;;;;;;;-2.31;94.81;102586.03;5049916;28;20029;-67
2022/12/17 16:05:22;;;;;;;104.80;58.27;;;;;;;-2.44;95.66;102590.16;5050289;28;20438;-67
2022/12/17 16:07:49;;;;;;;102.83;56.27;;;;;;;-2.35;95.89;102603.34;5050814;28;20029;-66
2022/12/17 16:10:17;;;;;;;105.80;57.63;;;;;;;-2.41;95.44;102592.81;5062971;28;20036;-67
2022/12/17 16:12:46;;;;;;;111.53;57.77;;;;;;;-2.29;95.32;102593.03;5067747;28;20408;-67
2022/12/17 16:15:14;;;;;;;109.83;59.80;;;;;;;-2.41;94.97;102584.09;5070912;28;20503;-67
2022/12/17 16:17:42;;;;;;;110.27;57.53;;;;;;;-2.36;95.40;102587.66;5069835;28;20056;-67
2022/12/17 16:20:08;;;;;;;108.43;57.87;;;;;;;-2.39;94.91;102588.50;5064105;28;20095;-67
2022/12/17 16:22:34;;;;;;;106.40;57.43;;;;;;;-2.40;95.12;102585.88;5055460;28;20117;-67
2022/12/17 16:25:01;;;;;;;113.13;61.07;;;;;;;-2.50;95.33;102587.41;5049182;28;20028;-66
2022/12/17 16:27:29;;;;;;;117.67;60.33;;;;;;;-2.50;95.64;102587.41;5051228;28;20029;-67
2022/12/17 16:29:55;;;;;;;111.00;58.47;;;;;;;-2.46;95.26;102588.38;5048559;28;20400;-67
2022/12/17 16:32:23;;;;;;;104.60;56.60;;;;;;;-2.54;95.38;102589.09;5033080;28;20029;-67
2022/12/17 16:34:48;;;;;;;115.27;59.97;;;;;;;-2.57;94.91;102599.44;5040814;28;20024;-67
2022/12/17 16:37:16;;;;;;;120.87;60.63;;;;;;;-2.46;95.71;102594.44;5051117;28;20407;-67
2022/12/17 16:39:42;;;;;;;119.00;62.87;;;;;;;-2.48;95.11;102598.75;5050588;28;20051;-66
2022/12/17 16:42:07;;;;;;;123.00;62.13;;;;;;;-2.61;95.51;102594.16;5041169;28;20456;-67
2022/12/17 16:44:33;;;;;;;122.97;62.93;;;;;;;-2.65;96.04;102592.31;5060733;28;20068;-66
2022/12/17 16:46:59;;;;;;;128.07;64.07;;;;;;;-2.71;96.46;102593.06;5069651;28;20043;-67
2022/12/17 16:49:29;;;;;;;122.00;60.03;;;;;;;-2.65;96.25;102597.53;5074403;28;20024;-66
2022/12/17 16:51:55;;;;;;;118.97;62.53;;;;;;;-2.56;96.39;102595.09;5074297;28;20489;-66
2022/12/17 16:54:24;;;;;;;115.77;59.43;;;;;;;-2.61;95.92;102599.38;5072846;28;20110;-66
2022/12/17 16:56:50;;;;;;;123.13;63.60;;;;;;;-2.58;95.59;102609.84;5053927;28;20361;-67
2022/12/17 16:59:16;;;;;;;120.27;60.50;;;;;;;-2.61;95.96;102599.38;5053988;28;20029;-67
2022/12/17 17:01:43;;;;;;;122.40;62.10;;;;;;;-2.58;95.64;102608.13;5052973;28;20025;-67
2022/12/17 17:04:09;;;;;;;119.67;63.33;;;;;;;-2.59;95.89;102602.84;5052655;28;20060;-67
2022/12/17 17:06:43;;;;;;;116.03;58.23;;;;;;;-2.61;96.02;102591.56;5052960;28;20025;-67
2022/12/17 17:09:12;;;;;;;118.50;62.17;;;;;;;-2.69;95.78;102596.59;5053751;28;20043;-67
2022/12/17 17:11:38;;;;;;;114.87;60.53;;;;;;;-2.76;95.83;102595.59;5069107;28;20036;-67
2022/12/17 17:14:04;;;;;;;118.47;60.87;;;;;;;-2.77;96.02;102604.25;5052104;28;20048;-67
2022/12/17 17:16:30;;;;;;;116.27;59.97;;;;;;;-2.79;96.40;102605.97;5053429;28;20052;-67
2022/12/17 17:18:56;;;;;;;116.70;59.33;;;;;;;-2.75;96.45;102604.28;5046709;28;20402;-67
2022/12/17 17:21:27;;;;;;;114.90;59.50;;;;;;;-2.70;96.51;102610.47;5070460;28;20021;-67
2022/12/17 17:24:01;;;;;;;112.00;59.27;;;;;;;-2.70;95.87;102613.09;5067349;28;20021;-67
2022/12/17 17:26:28;;;;;;;117.87;57.27;;;;;;;-2.77;95.30;102619.00;5067901;28;20043;-67
2022/12/17 17:28:54;;;;;;;112.00;58.43;;;;;;;-2.89;95.19;102618.75;5071943;28;20550;-66
2022/12/17 17:31:20;;;;;;;111.30;57.83;;;;;;;-2.91;95.35;102612.63;5072318;28;20108;-67
2022/12/17 17:33:47;;;;;;;114.00;56.57;;;;;;;-2.90;95.88;102612.66;5060374;28;20107;-66
2022/12/17 17:36:24;;;;;;;105.17;57.00;;;;;;;-2.83;95.72;102624.06;5053430;28;20021;-67
2022/12/17 17:38:51;;;;;;;116.73;58.40;;;;;;;-2.83;96.02;102629.28;5051818;28;20029;-67
2022/12/17 17:41:20;;;;;;;114.17;57.17;;;;;;;-2.79;95.86;102625.91;5053533;28;20017;-67
2022/12/17 17:43:51;;;;;;;123.30;57.90;;;;;;;-2.78;95.57;102622.47;5053592;28;20108;-67
2022/12/17 17:46:18;;;;;;;119.10;60.70;;;;;;;-2.89;95.54;102614.41;5053456;28;20392;-68
2022/12/17 17:48:45;;;;;;;118.10;61.00;;;;;;;-2.89;95.46;102624.81;5052221;28;20094;-67
2022/12/17 17:51:19;;;;;;;118.93;59.63;;;;;;;-2.77;95.92;102626.81;5031827;28;20029;-67
2022/12/17 17:53:47;;;;;;;116.03;57.43;;;;;;;-2.87;95.90;102624.88;5032442;28;20025;-67
2022/12/17 17:56:16;;;;;;;121.00;60.27;;;;;;;-2.91;95.21;102623.03;5050667;28;20020;-67
2022/12/17 17:58:44;;;;;;;113.00;56.70;;;;;;;-2.89;95.47;102624.81;5053345;28;20017;-67
2022/12/17 18:01:12;;;;;;;111.47;55.83;;;;;;;-2.98;95.30;102625.50;5053354;28;20495;-67
2022/12/17 18:03:37;;;;;;;116.57;56.77;;;;;;;-3.00;94.93;102622.03;5053141;28;20029;-67
2022/12/17 18:06:07;;;;;;;112.40;57.27;;;;;;;-3.07;95.30;102621.84;5051653;28;20091;-67
2022/12/17 18:08:34;;;;;;;116.50;59.10;;;;;;;-3.07;95.90;102622.72;5052646;28;20029;-66
2022/12/17 18:11:01;;;;;;;117.07;57.33;;;;;;;-2.98;96.24;102620.31;5052930;28;20044;-67
2022/12/17 18:16:11;;;;;;;109.20;54.87;;;;;;;-2.97;95.63;102623.81;5052465;28;20565;-67
2022/12/17 18:18:37;;;;;;;109.80;54.73;;;;;;;-3.00;94.93;102624.63;5052519;28;20037;-66
2022/12/17 18:21:09;;;;;;;106.57;55.43;;;;;;;-2.96;95.23;102622.94;5052772;28;20021;-67
2022/12/17 18:23:35;;;;;;;114.23;57.97;;;;;;;-2.94;95.25;102622.97;5052141;28;20036;-67
2022/12/17 18:26:20;;;;;;;115.00;58.97;;;;;;;-2.83;95.01;102630.16;5052169;28;20545;-67
2022/12/17 18:28:47;;;;;;;119.53;59.57;;;;;;;-2.87;94.63;102635.28;5052384;28;20036;-66
2022/12/17 18:31:18;;;;;;;123.50;60.83;;;;;;;-2.91;94.37;102613.53;5052855;28;20440;-67
2022/12/17 18:33:57;;;;;;;118.97;57.93;;;;;;;-2.83;94.33;102627.56;5051229;28;20028;-67
2022/12/17 18:36:28;;;;;;;129.07;64.13;;;;;;;-2.75;94.42;102620.78;5052387;28;20112;-67
2022/12/17 18:38:55;;;;;;;129.40;63.87;;;;;;;-2.82;93.89;102618.91;5050167;28;20112;-67
2022/12/17 18:44:06;;;;;;;126.43;61.57;;;;;;;-2.75;93.86;102620.78;5052604;28;20051;-67
2022/12/17 18:46:32;;;;;;;126.30;61.17;;;;;;;-2.82;93.74;102624.13;5051244;28;20025;-66
2022/12/17 18:49:06;;;;;;;120.43;58.27;;;;;;;-2.77;93.77;102625.06;5051917;28;20369;-67
2022/12/17 18:51:33;;;;;;;118.43;57.80;;;;;;;-2.86;93.34;102624.88;5052409;28;20024;-67
2022/12/17 18:54:00;;;;;;;118.37;60.47;;;;;;;-3.02;93.41;102617.63;5050209;28;20435;-67
2022/12/17 18:56:26;;;;;;;114.27;58.03;;;;;;;-2.97;93.51;102626.41;5052183;28;20037;-67
2022/12/17 18:58:53;;;;;;;108.50;55.90;;;;;;;-2.98;93.53;102630.72;5050913;28;20029;-67
2022/12/17 19:01:24;;;;;;;105.83;56.23;;;;;;;-3.06;93.60;102627.09;5052299;28;20028;-67
2022/12/17 19:03:53;;;;;;;103.43;56.03;;;;;;;-3.06;93.61;102642.72;5051621;28;20463;-67
2022/12/17 19:06:20;;;;;;;105.20;54.73;;;;;;;-3.05;94.49;102636.66;5051637;28;20028;-67
2022/12/17 19:08:48;;;;;;;100.03;53.43;;;;;;;-3.37;93.78;102614.22;5051170;28;20033;-66
2022/12/17 19:11:16;;;;;;;107.20;55.10;;;;;;;-3.23;94.07;102639.72;5052054;28;20029;-67
2022/12/17 19:13:45;;;;;;;104.63;56.73;;;;;;;-3.11;94.24;102640.84;5051953;28;20052;-67
2022/12/17 19:16:15;;;;;;;105.17;52.63;;;;;;;-3.10;94.00;102651.28;5051450;28;20056;-67
2022/12/17 19:18:41;;;;;;;99.22;53.05;;;;;;;-3.13;93.26;102645.13;5051711;28;20083;-67
2022/12/17 19:21:10;;;;;;;99.30;52.00;;;;;;;-3.20;93.55;102655.41;5051750;28;20036;-67
2022/12/17 19:23:36;;;;;;;106.47;53.93;;;;;;;-3.22;93.88;102657.06;5050943;28;20100;-67
2022/12/17 19:26:14;;;;;;;103.67;54.57;;;;;;;-3.22;94.14;102666.59;5051816;28;20027;-67
2022/12/17 19:28:41;;;;;;;106.10;53.83;;;;;;;-3.08;94.66;102665.22;5050049;28;20025;-67
2022/12/17 19:31:07;;;;;;;107.17;57.03;;;;;;;-2.99;94.49;102673.22;5051620;28;20184;-67
2022/12/17 19:33:32;;;;;;;110.83;57.87;;;;;;;-2.97;93.86;102668.06;5051702;28;20028;-67
2022/12/17 19:36:06;;;;;;;103.70;55.10;;;;;;;-2.98;94.16;102667.16;5050107;28;20025;-67
2022/12/17 19:38:32;;;;;;;104.40;54.43;;;;;;;-3.04;93.82;102656.59;5050995;28;20025;-67
2022/12/17 19:41:16;;;;;;;102.60;56.07;;;;;;;-2.91;93.87;102675.09;5051724;28;20488;-67
2022/12/17 19:43:46;;;;;;;99.93;53.77;;;;;;;-2.99;92.78;102667.13;5050379;28;20028;-67
2022/12/17 19:46:17;;;;;;;101.80;54.03;;;;;;;-3.06;92.81;102663.53;5051572;28;20555;-67
2022/12/17 19:48:44;;;;;;;105.18;54.22;;;;;;;-3.08;92.85;102667.81;5031866;28;20535;-67
2022/12/17 19:51:15;;;;;;;106.50;56.50;;;;;;;-3.16;92.93;102660.66;5036340;28;20411;-67
2022/12/17 19:53:42;;;;;;;98.40;53.33;;;;;;;-3.25;92.97;102654.41;5050416;28;20028;-67
2022/12/17 19:56:12;;;;;;;100.70;54.37;;;;;;;-3.29;93.70;102655.19;5051661;28;20472;-67
2022/12/17 19:58:39;;;;;;;111.07;53.63;;;;;;;-3.28;93.84;102666.47;5050095;28;20453;-67
2022/12/17 20:01:21;;;;;;;98.90;52.80;;;;;;;-3.36;94.03;102652.41;5050298;28;20091;-67
2022/12/17 20:03:48;;;;;;;97.97;50.83;;;;;;;-3.34;93.80;102661.13;5050960;28;20082;-67
2022/12/17 20:06:15;;;;;;;104.00;55.70;;;;;;;-3.46;94.03;102659.13;5050212;28;20472;-67
2022/12/17 20:08:43;;;;;;;100.93;52.53;;;;;;;-3.40;94.28;102659.25;5051231;28;20052;-67
2022/12/17 20:14:00;;;;;;;102.77;53.13;;;;;;;-3.37;93.97;102680.13;5051299;28;20035;-67
2022/12/17 20:16:27;;;;;;;91.03;51.17;;;;;;;-3.32;94.32;102686.34;5052958;28;20045;-67
2022/12/17 20:18:52;;;;;;;94.37;51.07;;;;;;;-3.40;94.04;102692.19;5054915;28;20017;-67
2022/12/17 20:21:18;;;;;;;107.03;59.57;;;;;;;-3.52;93.71;102695.38;5053306;28;20032;-67
2022/12/17 20:23:50;;;;;;;101.50;55.00;;;;;;;-3.42;93.92;102695.63;5055038;28;20466;-67
2022/12/17 20:26:16;;;;;;;101.70;54.97;;;;;;;-3.46;94.16;102698.13;5055321;28;20079;-67
2022/12/17 20:28:43;;;;;;;101.23;53.13;;;;;;;-3.35;94.29;102696.66;5053928;28;20032;-67
2022/12/17 20:31:12;;;;;;;104.93;53.53;;;;;;;-3.27;94.13;102684.69;5054650;28;20025;-67
2022/12/17 20:33:39;;;;;;;102.27;54.43;;;;;;;-3.37;94.06;102687.94;5054746;28;20029;-67
2022/12/17 20:36:10;;;;;;;110.63;56.80;;;;;;;-3.36;94.13;102689.69;5054796;28;20029;-67
2022/12/17 20:38:36;;;;;;;102.03;55.43;;;;;;;-3.27;94.70;102689.91;5054524;28;20442;-67
2022/12/17 20:41:14;;;;;;;103.87;55.97;;;;;;;-3.25;94.55;102679.53;5053719;28;20143;-67
2022/12/17 20:43:40;;;;;;;104.50;55.87;;;;;;;-3.23;94.64;102670.94;5054716;28;20024;-67
2022/12/17 20:46:08;;;;;;;101.77;55.87;;;;;;;-3.27;94.29;102668.22;5053289;28;20059;-67
2022/12/17 20:48:34;;;;;;;99.57;55.60;;;;;;;-3.22;94.44;102670.09;5054746;28;20030;-67
2022/12/17 20:51:05;;;;;;;99.37;52.63;;;;;;;-3.31;94.22;102672.47;5054376;28;20388;-67
2022/12/17 20:53:33;;;;;;;94.23;50.77;;;;;;;-3.37;94.41;102663.66;5052750;28;20487;-67
2022/12/17 20:56:06;;;;;;;96.73;52.77;;;;;;;-3.37;94.46;102672.34;5054304;28;20476;-67
2022/12/17 20:58:35;;;;;;;101.80;53.73;;;;;;;-3.37;94.57;102668.84;5053211;28;20460;-67
2022/12/17 21:01:11;;;;;;;98.80;54.80;;;;;;;-3.35;94.80;102673.25;5054436;28;20090;-67
2022/12/17 21:03:37;;;;;;;96.10;51.53;;;;;;;-3.32;94.11;102680.25;5054442;28;20557;-67
2022/12/17 21:06:10;;;;;;;95.23;51.70;;;;;;;-3.33;94.21;102674.16;5052911;28;20448;-66
2022/12/17 21:08:38;;;;;;;89.80;52.77;;;;;;;-3.18;94.14;102678.84;5052637;28;20329;-67
2022/12/17 21:11:04;;;;;;;89.83;49.80;;;;;;;-3.23;93.66;102670.94;5052993;28;20516;-67
2022/12/17 21:13:29;;;;;;;92.00;50.00;;;;;;;-3.29;93.44;102662.13;5054037;28;20033;-67
2022/12/17 21:16:00;;;;;;;89.00;49.20;;;;;;;-3.20;93.60;102675.34;5053667;28;20055;-67
2022/12/17 21:18:29;;;;;;;88.73;50.03;;;;;;;-3.30;93.10;102692.44;5036479;28;20025;-67
2022/12/17 21:21:02;;;;;;;87.00;49.37;;;;;;;-3.33;92.90;102684.56;5053936;28;20498;-67
2022/12/17 21:23:32;;;;;;;88.37;48.07;;;;;;;-3.26;93.32;102683.00;5052329;28;20645;-67
2022/12/17 21:26:06;;;;;;;81.47;46.90;;;;;;;-3.29;93.21;102685.53;5053425;28;20025;-67
2022/12/17 21:28:33;;;;;;;83.50;46.30;;;;;;;-3.28;93.01;102677.75;5031797;28;20035;-67
2022/12/17 21:30:58;;;;;;;83.03;47.80;;;;;;;-3.28;92.76;102692.47;5033925;28;20052;-67
2022/12/17 21:33:24;;;;;;;80.30;46.17;;;;;;;-3.35;92.74;102688.88;5052799;28;20037;-67
2022/12/17 21:35:57;;;;;;;86.40;48.73;;;;;;;-3.37;92.90;102689.66;5052539;28;20035;-67
2022/12/17 21:38:25;;;;;;;84.70;46.90;;;;;;;-3.37;93.04;102690.53;5051487;28;20025;-67
2022/12/17 21:40:50;;;;;;;83.17;46.87;;;;;;;-3.37;92.98;102677.53;5052522;28;20056;-67
2022/12/17 21:43:15;;;;;;;84.70;47.77;;;;;;;-3.39;92.66;102692.22;5052211;28;20116;-67
2022/12/17 21:45:41;;;;;;;83.33;46.63;;;;;;;-3.45;92.84;102681.66;5052092;28;20116;-67
2022/12/17 21:48:11;;;;;;;87.10;48.67;;;;;;;-3.50;92.63;102685.88;5051559;28;20025;-67
2022/12/17 21:50:43;;;;;;;87.60;48.22;;;;;;;-3.40;92.43;102694.78;5053373;28;20419;-67
2022/12/17 21:53:10;;;;;;;84.23;47.30;;;;;;;-3.40;92.96;102700.88;5052845;28;20111;-67
2022/12/17 21:55:35;;;;;;;87.93;48.47;;;;;;;-3.39;92.66;102694.81;5035178;28;20540;-67
2022/12/17 21:58:01;;;;;;;83.73;46.07;;;;;;;-3.38;92.77;102698.28;5053148;28;20121;-67
2022/12/17 22:00:26;;;;;;;87.53;48.43;;;;;;;-3.38;92.50;102701.81;5035596;28;20028;-67
2022/12/17 22:02:52;;;;;;;85.17;48.53;;;;;;;-3.50;92.58;102696.28;5052957;28;20037;-67
2022/12/17 22:05:18;;;;;;;84.33;46.23;;;;;;;-3.58;92.19;102703.03;5053054;28;20475;-68
2022/12/17 22:07:46;;;;;;;82.80;46.03;;;;;;;-3.63;92.41;102702.03;5053181;28;20032;-66
2022/12/17 22:10:11;;;;;;;79.20;46.97;;;;;;;-3.67;92.67;102701.06;5053143;28;20123;-67
2022/12/17 22:15:21;;;;;;;81.20;45.50;;;;;;;-3.58;92.91;102710.81;5037660;28;20064;-66
2022/12/17 22:17:46;;;;;;;78.43;45.60;;;;;;;-3.56;92.76;102723.03;5051602;28;20028;-67
2022/12/17 22:20:15;;;;;;;80.23;46.40;;;;;;;-3.57;92.80;102725.56;5035197;28;20502;-67
2022/12/17 22:22:41;;;;;;;72.83;44.83;;;;;;;-3.50;92.28;102732.69;5051647;28;20078;-67
2022/12/17 22:25:07;;;;;;;73.43;43.97;;;;;;;-3.56;91.83;102723.03;5050867;28;20021;-67
2022/12/17 22:27:33;;;;;;;75.83;44.13;;;;;;;-3.54;91.80;102729.13;5051450;28;20036;-67
2022/12/17 22:33:01;;;;;;;72.97;43.17;;;;;;;-3.59;91.24;102737.66;5052324;28;20048;-67
2022/12/17 22:35:38;;;;;;;69.23;41.87;;;;;;;-3.61;91.39;102728.94;5036828;28;20476;-67
2022/12/17 22:38:05;;;;;;;69.60;42.20;;;;;;;-3.55;91.61;102724.78;5051783;28;20029;-67
2022/12/17 22:40:35;;;;;;;73.97;42.90;;;;;;;-3.63;90.71;102735.81;5052350;28;20074;-66
2022/12/17 22:45:45;;;;;;;66.07;40.47;;;;;;;-3.72;90.04;102716.53;5052763;28;20404;-67
2022/12/17 22:48:11;;;;;;;67.90;40.87;;;;;;;-3.78;89.59;102715.50;5050775;28;20025;-67
2022/12/17 22:50:37;;;;;;;70.80;40.20;;;;;;;-3.75;90.11;102711.25;5051097;28;20033;-67
2022/12/17 22:53:04;;;;;;;67.50;40.83;;;;;;;-3.75;90.20;102716.47;5051756;28;20112;-67
2022/12/17 22:55:32;;;;;;;67.60;41.47;;;;;;;-3.76;89.94;102717.31;5052278;28;20029;-67
2022/12/17 22:57:58;;;;;;;67.10;40.40;;;;;;;-3.77;89.43;102712.06;5050584;28;20028;-67
2022/12/17 23:00:28;;;;;;;68.33;41.03;;;;;;;-3.86;89.65;102715.28;5030632;28;20112;-67
2022/12/17 23:02:54;;;;;;;69.10;41.73;;;;;;;-3.84;89.61;102720.53;5032319;28;20053;-67
2022/12/17 23:05:22;;;;;;;72.70;43.93;;;;;;;-3.93;89.88;102715.97;5032359;28;20037;-67
2022/12/17 23:07:48;;;;;;;74.37;43.23;;;;;;;-3.91;90.28;102717.78;5033787;28;20029;-66
2022/12/17 23:10:14;;;;;;;71.73;42.47;;;;;;;-3.86;90.38;102722.22;5050711;28;20572;-67
2022/12/17 23:12:53;;;;;;;71.43;42.13;;;;;;;-3.92;90.12;102717.72;5052012;28;20098;-67
2022/12/17 23:15:35;;;;;;;73.90;43.60;;;;;;;-3.90;89.91;102705.66;5020990;28;20178;-68
2022/12/17 23:18:05;;;;;;;69.60;41.53;;;;;;;-3.93;89.80;102696.06;5049922;28;20064;-67
2022/12/17 23:20:33;;;;;;;69.22;39.83;;;;;;;-4.01;89.40;102694.09;5049958;28;20021;-67
2022/12/17 23:22:59;;;;;;;68.30;41.27;;;;;;;-3.97;89.74;102683.84;5049851;28;20110;-67
2022/12/17 23:25:26;;;;;;;67.87;41.63;;;;;;;-4.04;89.88;102683.63;5050366;28;20127;-67
2022/12/17 23:27:54;;;;;;;69.20;40.80;;;;;;;-4.07;89.67;102689.63;5060258;28;20385;-67
2022/12/17 23:30:23;;;;;;;71.10;41.90;;;;;;;-4.03;89.75;102698.38;5049070;28;20046;-67
2022/12/17 23:32:49;;;;;;;68.07;41.60;;;;;;;-4.05;89.45;102698.34;5028464;28;20037;-67
2022/12/17 23:35:14;;;;;;;72.73;42.33;;;;;;;-4.07;89.66;102700.00;5066035;28;20041;-67
2022/12/17 23:37:39;;;;;;;67.70;41.97;;;;;;;-4.10;89.22;102697.31;5046843;28;20037;-66
2022/12/17 23:40:07;;;;;;;70.00;41.93;;;;;;;-4.14;88.81;102703.28;5048843;28;20047;-66
2022/12/17 23:42:33;;;;;;;66.47;40.03;;;;;;;-4.18;88.93;102702.31;5051657;28;20021;-66
2022/12/17 23:44:59;;;;;;;65.93;41.93;;;;;;;-4.21;88.18;102707.41;5033533;28;20044;-66
2022/12/17 23:47:24;;;;;;;67.40;39.50;;;;;;;-4.19;88.07;102703.16;5029659;28;20455;-67
2022/12/17 23:49:54;;;;;;;65.43;40.23;;;;;;;-4.29;87.93;102703.75;5033039;28;20029;-66
2022/12/17 23:52:20;;;;;;;;;;;;;;;-4.07;88.43;102707.81;5037921;28;20033;-66
2022/12/17 23:54:47;;;;;;;66.97;39.30;;;;;;;-4.27;87.31;102720.22;5070911;28;19919;-67
2022/12/17 23:57:15;;;;;;;66.00;40.00;;;;;;;-4.26;87.05;102714.22;5038225;28;20035;-66
2022/12/17 23:59:41;;;;;;;64.93;39.27;;;;;;;-4.30;86.77;102714.94;5054159;28;20063;-67
